Pagrindinis puslapis
METAR-TAF:

METAR-TAF

Oro uostai :

Alderney,

platuma: 49-43N, ilguma: 002-12W, Aukštis: 71 m

Dabartinis oras

Ataskaita buvo paskelbta 5 valandos ir 0 minutes, ne 18:20 UTC
Vėjas 20 kt iš Pietvakarių
Temperatūra 9°C
Drėgmė 81%
Slėgis 1026 hPa
Matomumas 10 km arba daugiau
Išsisklaidę debesys ne aukštis 2200 ft

METAR: EGJA 211820Z 23020KT 9999 SCT022 09/06 Q1026

Laikas: 23:20 (23:20 UTC)

Prognozė

Ataskaita buvo paskelbta 9 valandos ir 24 minutes, ne 13:56 UTC
Prognozė galioja nuo 21 metu 15 UTC su 22 metu 00 UTC
Vėjas 20 kt iš Pietvakarių
Matomumas 10 km arba daugiau
Mažai debesys ne aukštis 1800 ft
Išsisklaidę debesys ne aukštis 3500 ft
Tapsmas
nuo 21 metu 16 UTC su 21 metu 18 UTC
Vėjas 22 kt iš Pietvakarių su gūsio iki 32 kt

TAF: EGJA 211356Z 2115/2200 23020KT 9999 FEW018 SCT035 BECMG 2116/2118 23022G32KT

Orai ataskaitas ir orų prognozės (METAR, TAF).

turimą stotys yra geltonos ir raudonos taškus žemėlapyje.

Perkelti pele per norėdami pamatyti stoties vardą.

Tada spustelėkite, norėdami matyti oro stebėjimo ir prognozės.

Norėdami pakeisti žemėlapį: spustelėkite ant žalios mygtukų su juodo kryžiaus žemyn,; žalią mygtuką su brūkšneliu, jei norite nutolinti; arba žalių rodyklių gretimoms žemėlapius.


METAR-TAF: